Time;durP1;ratioP1;P1;durP2;ratioP2;P2;SDS_P1;SDS_P2;PMS_P1;PMS_P2;Temp;Humidity;BMP_temperature;BMP_pressure;BME280_temperature;BME280_humidity;BME280_pressure;Samples;Min_cycle;Max_cycle;Signal;HPM_P1;HPM_P2
2023/11/22 00:00:32;;;;;;;9.70;5.80;;;;;;;-2.01;99.84;101302.88;105437;1265;98353;-80
2023/11/22 00:03:33;;;;;;;11.40;6.20;;;;;;;-2.01;99.93;101305.14;105402;1270;98106;-80
2023/11/22 00:06:21;;;;;;;11.90;6.70;;;;;;;-2.01;99.95;101307.58;105364;1269;102006;-79
2023/11/22 00:09:07;;;;;;;10.10;5.50;;;;;;;-2.02;99.75;101309.73;105535;1266;100176;-80
2023/11/22 00:11:52;;;;;;;10.60;6.50;;;;;;;-2.03;99.50;101310.69;105428;1270;97983;-80
2023/11/22 00:14:38;;;;;;;13.70;7.10;;;;;;;-2.06;99.33;101313.31;105410;1268;98012;-79
2023/11/22 00:17:24;;;;;;;10.90;6.30;;;;;;;-2.08;99.09;101313.77;105332;1265;97861;-80
2023/11/22 00:20:10;;;;;;;14.90;6.60;;;;;;;-2.10;98.80;101317.39;106550;1267;101353;-79
2023/11/22 00:22:57;;;;;;;9.20;6.00;;;;;;;-2.10;98.95;101315.48;105364;1265;100654;-80
2023/11/22 00:25:42;;;;;;;9.80;5.90;;;;;;;-2.10;98.71;101314.42;105385;1271;98778;-80
2023/11/22 00:28:28;;;;;;;11.10;6.00;;;;;;;-2.10;98.55;101317.23;105966;1269;97898;-80
2023/11/22 00:31:14;;;;;;;10.80;6.10;;;;;;;-2.09;98.47;101320.67;105565;1265;97981;-79
2023/11/22 00:34:00;;;;;;;11.00;7.00;;;;;;;-2.09;98.20;101323.45;105311;1271;102103;-79
2023/11/22 00:36:45;;;;;;;10.40;6.60;;;;;;;-2.08;98.24;101325.33;105412;1268;99240;-79
2023/11/22 00:39:30;;;;;;;12.00;6.20;;;;;;;-2.07;98.14;101330.71;105350;1267;98614;-79
2023/11/22 00:42:19;;;;;;;9.90;6.00;;;;;;;-2.09;97.58;101332.57;105462;1265;97988;-79
2023/11/22 00:45:06;;;;;;;8.40;5.30;;;;;;;-2.11;97.38;101341.92;105466;1265;98519;-78
2023/11/22 00:47:52;;;;;;;9.40;5.10;;;;;;;-2.11;97.76;101341.45;105401;1265;101432;-79
2023/11/22 00:50:38;;;;;;;11.00;6.00;;;;;;;-2.11;97.67;101349.14;105471;1270;99252;-80
2023/11/22 00:53:23;;;;;;;11.40;6.40;;;;;;;-2.14;97.13;101348.96;105498;1269;98463;-80
2023/11/22 00:56:09;;;;;;;11.20;5.80;;;;;;;-2.16;97.09;101353.95;105517;1269;96795;-80
2023/11/22 00:58:55;;;;;;;13.30;6.10;;;;;;;-2.18;96.80;101354.77;105566;1265;98430;-80
2023/11/22 01:01:41;;;;;;;8.60;5.20;;;;;;;-2.20;96.65;101358.56;105585;1267;101394;-80
2023/11/22 01:04:26;;;;;;;8.30;5.90;;;;;;;-2.21;96.75;101361.42;105413;1268;99141;-80
2023/11/22 01:07:12;;;;;;;9.40;5.70;;;;;;;-2.20;96.88;101363.45;105227;1269;97998;-79
2023/11/22 01:09:57;;;;;;;8.80;4.90;;;;;;;-2.18;96.97;101363.67;105540;1265;98094;-79
2023/11/22 01:12:43;;;;;;;8.80;5.40;;;;;;;-2.17;97.10;101362.77;105419;1265;97604;-80
2023/11/22 01:15:28;;;;;;;8.60;5.40;;;;;;;-2.17;97.04;101364.73;105402;1268;101952;-79
2023/11/22 01:18:13;;;;;;;8.20;5.60;;;;;;;-2.18;97.15;101368.27;105545;1269;99865;-80
2023/11/22 01:20:59;;;;;;;10.00;5.50;;;;;;;-2.20;96.70;101368.21;105452;1271;98000;-80
2023/11/22 01:23:46;;;;;;;10.40;5.90;;;;;;;-2.23;96.70;101368.88;105523;1265;98064;-79
2023/11/22 01:26:31;;;;;;;9.40;6.00;;;;;;;-2.23;96.58;101366.47;105543;1265;97981;-80
2023/11/22 01:29:17;;;;;;;10.20;5.50;;;;;;;-2.24;96.69;101366.52;105596;1265;101401;-80
2023/11/22 01:32:03;;;;;;;10.20;5.80;;;;;;;-2.25;96.51;101368.33;105468;1269;100498;-79
2023/11/22 01:34:49;;;;;;;11.00;6.10;;;;;;;-2.27;96.40;101367.20;105546;1269;97889;-80
2023/11/22 01:37:35;;;;;;;12.40;6.10;;;;;;;-2.28;96.79;101364.30;105471;1270;98087;-80
2023/11/22 01:40:20;;;;;;;12.40;5.70;;;;;;;-2.28;96.64;101369.02;105341;1265;99278;-79
2023/11/22 01:43:06;;;;;;;10.90;5.20;;;;;;;-2.30;96.57;101374.18;105499;1270;102034;-80
2023/11/22 01:45:52;;;;;;;10.40;5.30;;;;;;;-2.31;96.47;101377.77;105449;1265;99272;-80
2023/11/22 01:48:37;;;;;;;8.70;5.10;;;;;;;-2.33;96.39;101380.48;105323;1273;99115;-79
2023/11/22 01:51:24;;;;;;;9.60;5.40;;;;;;;-2.32;96.80;101382.55;105605;1269;97991;-79
2023/11/22 01:54:12;;;;;;;11.90;5.20;;;;;;;-2.32;96.70;101387.42;105427;1270;98609;-80
2023/11/22 01:56:58;;;;;;;10.70;5.10;;;;;;;-2.32;96.64;101390.77;105520;1269;102158;-79
2023/11/22 01:59:45;;;;;;;9.50;5.20;;;;;;;-2.33;96.38;101396.55;105410;1267;99126;-80
2023/11/22 02:02:31;;;;;;;8.10;5.10;;;;;;;-2.33;96.41;101403.77;106109;1265;99091;-80
2023/11/22 02:05:17;;;;;;;9.30;5.00;;;;;;;-2.35;96.51;101403.84;105556;1265;97923;-80
2023/11/22 02:08:03;;;;;;;8.00;4.30;;;;;;;-2.36;96.36;101409.66;105212;1270;98500;-79
2023/11/22 02:10:59;;;;;;;7.80;4.90;;;;;;;-2.37;96.23;101413.23;104886;1268;102604;-79
2023/11/22 02:13:44;;;;;;;8.50;5.40;;;;;;;-2.39;96.05;101417.38;104839;1270;100435;-79
2023/11/22 02:16:30;;;;;;;7.90;5.10;;;;;;;-2.41;95.73;101416.06;104934;1265;98267;-79
2023/11/22 02:19:17;;;;;;;9.20;4.90;;;;;;;-2.43;95.57;101415.83;104903;1268;98103;-79
2023/11/22 02:22:03;;;;;;;9.20;4.80;;;;;;;-2.44;95.58;101417.46;104847;1268;98632;-80
2023/11/22 02:24:49;;;;;;;8.30;5.10;;;;;;;-2.47;95.66;101413.76;104912;1265;102186;-78
2023/11/22 02:27:34;;;;;;;6.70;4.10;;;;;;;-2.49;95.47;101417.20;105321;1270;100399;-80
2023/11/22 02:30:21;;;;;;;8.80;5.20;;;;;;;-2.52;95.12;101416.67;105494;1265;99075;-80
2023/11/22 02:33:06;;;;;;;9.20;5.50;;;;;;;-2.54;94.54;101421.71;105562;1268;97997;-80
2023/11/22 02:35:52;;;;;;;9.70;5.50;;;;;;;-2.56;94.64;101424.45;105871;1265;96482;-79
2023/11/22 02:38:38;;;;;;;6.90;4.20;;;;;;;-2.58;94.35;101423.30;105693;1268;102777;-79
2023/11/22 02:41:29;;;;;;;8.90;4.30;;;;;;;-2.59;93.96;101425.31;105093;1265;99236;-80
2023/11/22 02:44:17;;;;;;;7.80;4.80;;;;;;;-2.62;93.49;101429.63;105325;1270;98078;-80
2023/11/22 02:47:03;;;;;;;9.00;4.60;;;;;;;-2.63;93.80;101434.10;105375;1270;98093;-78
2023/11/22 02:49:49;;;;;;;7.40;3.90;;;;;;;-2.65;93.88;101435.06;105382;1268;98608;-80
2023/11/22 02:52:34;;;;;;;9.30;5.10;;;;;;;-2.65;93.95;101437.90;105318;1272;102611;-80
2023/11/22 02:55:19;;;;;;;5.90;3.90;;;;;;;-2.66;94.02;101435.66;105476;1270;99118;-79
2023/11/22 02:58:06;;;;;;;7.00;4.60;;;;;;;-2.67;94.12;101439.58;105562;1267;98325;-78
2023/11/22 03:00:54;;;;;;;8.00;4.90;;;;;;;-2.66;94.25;101443.38;105495;1268;97766;-80
2023/11/22 03:03:40;;;;;;;7.10;4.60;;;;;;;-2.67;94.23;101447.41;105624;1268;98107;-79
2023/11/22 03:06:27;;;;;;;5.90;4.00;;;;;;;-2.68;94.44;101456.18;105549;1267;101453;-80
2023/11/22 03:09:14;;;;;;;9.10;4.70;;;;;;;-2.69;94.29;101460.29;105505;1270;100384;-80
2023/11/22 03:11:59;;;;;;;8.30;5.10;;;;;;;-2.71;93.91;101468.80;105408;1270;97914;-79
2023/11/22 03:14:46;;;;;;;5.90;4.40;;;;;;;-2.74;93.41;101469.80;105523;1268;97981;-80
2023/11/22 03:17:32;;;;;;;9.70;4.90;;;;;;;-2.78;93.22;101475.27;105351;1270;98001;-79
2023/11/22 03:20:18;;;;;;;7.60;5.00;;;;;;;-2.82;93.16;101480.94;105358;1270;101407;-80
2023/11/22 03:23:04;;;;;;;8.60;4.80;;;;;;;-2.85;93.24;101477.95;105116;1270;99936;-80
2023/11/22 03:25:50;;;;;;;8.00;4.50;;;;;;;-2.88;93.05;101482.96;105303;1266;98277;-79
2023/11/22 03:28:35;;;;;;;7.80;4.40;;;;;;;-2.92;92.55;101495.79;105225;1272;97896;-79
2023/11/22 03:31:21;;;;;;;7.60;4.40;;;;;;;-2.99;92.17;101500.67;104905;1270;97965;-79
2023/11/22 03:34:07;;;;;;;7.10;4.30;;;;;;;-3.03;92.22;101506.67;104880;1268;101431;-78
2023/11/22 03:36:52;;;;;;;7.40;4.30;;;;;;;-3.07;92.10;101507.40;105562;1271;99172;-79
2023/11/22 03:39:38;;;;;;;8.90;4.10;;;;;;;-3.14;91.80;101514.20;105344;1270;97978;-79
2023/11/22 03:42:23;;;;;;;6.40;3.80;;;;;;;-3.22;91.49;101520.55;105530;1269;97988;-80
2023/11/22 03:45:09;;;;;;;6.40;4.10;;;;;;;-3.29;91.38;101521.92;105400;1271;97861;-80
2023/11/22 03:47:55;;;;;;;7.20;4.30;;;;;;;-3.35;91.41;101531.55;105470;1270;102650;-80
2023/11/22 03:50:40;;;;;;;7.20;4.40;;;;;;;-3.42;91.04;101544.09;105433;1269;100562;-80
2023/11/22 03:53:26;;;;;;;8.60;4.20;;;;;;;-3.49;90.84;101554.02;105403;1270;99471;-80
2023/11/22 03:56:12;;;;;;;7.90;4.80;;;;;;;-3.53;90.84;101564.91;105259;1283;99430;-80
2023/11/22 03:58:57;;;;;;;9.10;4.70;;;;;;;-3.59;90.64;101567.47;105400;1269;97909;-80
2023/11/22 04:01:42;;;;;;;8.40;4.60;;;;;;;-3.65;90.81;101571.42;105272;1268;102103;-77
2023/11/22 04:04:28;;;;;;;8.40;4.30;;;;;;;-3.69;90.93;101577.71;104891;1270;99098;-78
2023/11/22 04:07:13;;;;;;;8.00;4.50;;;;;;;-3.73;90.83;101581.73;104960;1269;99716;-79
2023/11/22 04:09:59;;;;;;;8.30;4.60;;;;;;;-3.77;90.82;101582.66;105337;1267;98007;-79
2023/11/22 04:12:45;;;;;;;7.50;4.70;;;;;;;-3.83;90.61;101586.75;105363;1269;98506;-80
2023/11/22 04:15:31;;;;;;;7.10;4.60;;;;;;;-3.87;90.74;101591.33;105749;1272;101455;-79
2023/11/22 04:18:17;;;;;;;6.40;4.00;;;;;;;-3.91;90.83;101598.29;105500;1267;100211;-79
2023/11/22 04:21:04;;;;;;;6.50;4.10;;;;;;;-3.92;90.91;101602.52;105357;1277;98002;-79
2023/11/22 04:23:49;;;;;;;6.30;4.60;;;;;;;-3.93;90.93;101602.73;105355;1269;97975;-79
2023/11/22 04:26:35;;;;;;;8.70;5.00;;;;;;;-3.94;90.85;101605.56;105391;1268;97908;-81
2023/11/22 04:29:21;;;;;;;8.60;5.10;;;;;;;-3.96;90.79;101606.71;105493;1268;102728;-78
2023/11/22 04:32:06;;;;;;;10.10;5.00;;;;;;;-3.96;90.85;101607.39;105473;1270;99785;-79
2023/11/22 04:34:52;;;;;;;7.10;4.80;;;;;;;-3.95;90.96;101605.63;105966;1266;99117;-79
2023/11/22 04:37:37;;;;;;;9.00;4.60;;;;;;;-3.94;90.90;101610.64;105400;1269;97878;-80
2023/11/22 04:40:23;;;;;;;7.80;5.10;;;;;;;-3.94;90.70;101619.73;105427;1270;98508;-79
2023/11/22 04:43:08;;;;;;;8.20;4.50;;;;;;;-3.95;90.68;101628.82;105520;1270;101398;-80
2023/11/22 04:45:54;;;;;;;8.80;5.10;;;;;;;-3.95;90.67;101638.77;105344;1268;99848;-80
2023/11/22 04:48:44;;;;;;;11.00;4.80;;;;;;;-3.94;90.84;101640.48;105403;1279;99097;-81
2023/11/22 04:51:30;;;;;;;9.70;5.70;;;;;;;-3.92;91.17;101647.87;105460;1270;98871;-80
2023/11/22 04:54:15;;;;;;;9.10;4.90;;;;;;;-3.86;91.34;101653.05;105410;1270;98466;-80
2023/11/22 04:57:01;;;;;;;9.30;4.90;;;;;;;-3.82;91.48;101655.98;105362;1270;102676;-80
2023/11/22 04:59:46;;;;;;;9.70;5.80;;;;;;;-3.77;91.57;101659.60;105314;1270;99174;-80
2023/11/22 05:02:32;;;;;;;10.00;5.00;;;;;;;-3.73;91.58;101662.05;105382;1272;98014;-80
2023/11/22 05:05:18;;;;;;;8.70;4.90;;;;;;;-3.73;91.21;101670.05;105381;1271;98345;-79
2023/11/22 05:08:04;;;;;;;7.30;4.70;;;;;;;-3.72;91.06;101673.13;105437;1269;99657;-79
2023/11/22 05:10:49;;;;;;;9.10;5.20;;;;;;;-3.73;91.18;101667.08;105455;1267;102658;-80
2023/11/22 05:13:35;;;;;;;12.40;4.80;;;;;;;-3.71;91.23;101666.13;105373;1270;99113;-80
2023/11/22 05:16:21;;;;;;;9.70;5.40;;;;;;;-3.72;90.93;101661.79;105391;1267;97995;-79
2023/11/22 05:19:06;;;;;;;7.40;4.90;;;;;;;-3.74;90.63;101662.10;105323;1268;98529;-78
2023/11/22 05:21:52;;;;;;;7.50;4.60;;;;;;;-3.77;90.79;101665.54;105475;1267;97890;-79
2023/11/22 05:24:41;;;;;;;8.40;4.40;;;;;;;-3.82;90.68;101674.12;105436;1270;101406;-79
2023/11/22 05:27:28;;;;;;;8.50;4.80;;;;;;;-3.85;90.74;101681.27;105440;1265;100545;-80
2023/11/22 05:30:15;;;;;;;9.60;5.30;;;;;;;-3.89;90.85;101687.02;105426;1269;98350;-79
2023/11/22 05:33:00;;;;;;;7.90;4.80;;;;;;;-3.98;90.72;101690.88;105340;1270;97901;-81
2023/11/22 05:35:46;;;;;;;8.10;5.00;;;;;;;-4.10;90.48;101698.44;105475;1265;98865;-79
2023/11/22 05:38:33;;;;;;;12.40;6.40;;;;;;;-4.19;90.76;101699.17;105449;1267;102022;-79
2023/11/22 05:41:19;;;;;;;8.90;5.20;;;;;;;-4.24;91.06;101699.73;105448;1270;100916;-80
2023/11/22 05:44:04;;;;;;;10.70;5.90;;;;;;;-4.28;91.22;101702.34;105496;1269;98674;-80
2023/11/22 05:46:49;;;;;;;9.10;4.80;;;;;;;-4.33;91.21;101708.83;105433;1269;97959;-80
2023/11/22 05:49:35;;;;;;;9.20;5.40;;;;;;;-4.37;91.29;101714.43;105529;1278;98535;-80
2023/11/22 05:52:23;;;;;;;10.20;5.50;;;;;;;-4.44;91.30;101713.86;105515;1267;102072;-80
2023/11/22 05:55:08;;;;;;;11.40;6.20;;;;;;;-4.48;91.53;101711.23;105488;1269;99270;-79
2023/11/22 05:57:54;;;;;;;13.80;6.00;;;;;;;-4.50;91.49;101711.16;105450;1267;98779;-80
2023/11/22 06:00:40;;;;;;;10.00;5.40;;;;;;;-4.52;91.53;101716.83;105458;1266;97986;-79
2023/11/22 06:03:25;;;;;;;10.70;5.80;;;;;;;-4.57;91.53;101726.25;105493;1268;98021;-80
2023/11/22 06:06:13;;;;;;;10.20;4.90;;;;;;;-4.63;91.73;101734.00;105553;1269;101402;-80
2023/11/22 06:09:00;;;;;;;11.00;5.50;;;;;;;-4.67;91.91;101735.95;105479;1267;100231;-80
2023/11/22 06:11:45;;;;;;;10.50;5.70;;;;;;;-4.70;91.90;101737.79;105502;1270;99200;-80
2023/11/22 06:14:31;;;;;;;10.00;5.70;;;;;;;-4.71;92.03;101736.41;105543;1269;98003;-80
2023/11/22 06:17:16;;;;;;;11.70;5.60;;;;;;;-4.73;92.08;101743.30;105577;1277;97969;-79
2023/11/22 06:20:03;;;;;;;10.00;5.30;;;;;;;-4.74;92.12;101744.22;105530;1269;101379;-80
2023/11/22 06:22:49;;;;;;;11.20;6.40;;;;;;;-4.76;92.13;101747.96;105552;1269;99092;-81
2023/11/22 06:25:35;;;;;;;12.10;6.30;;;;;;;-4.80;91.99;101750.54;105414;1267;97980;-80
2023/11/22 06:28:22;;;;;;;11.30;4.90;;;;;;;-4.82;92.17;101753.44;105494;1267;98883;-79
2023/11/22 06:31:08;;;;;;;9.10;5.20;;;;;;;-4.85;92.27;101757.55;105433;1269;99667;-80
2023/11/22 06:33:53;;;;;;;9.70;5.10;;;;;;;-4.86;92.51;101758.48;105323;1267;102163;-81
2023/11/22 06:36:39;;;;;;;9.30;5.10;;;;;;;-4.86;92.61;101759.70;105412;1267;99156;-79
2023/11/22 06:39:25;;;;;;;12.90;6.40;;;;;;;-4.83;92.64;101767.25;105283;1269;97967;-77
2023/11/22 06:42:11;;;;;;;9.60;5.60;;;;;;;-4.83;92.64;101777.48;105279;1270;97121;-80
2023/11/22 06:45:00;;;;;;;9.00;5.30;;;;;;;-4.82;92.59;101778.33;105269;1270;97975;-82
2023/11/22 06:47:45;;;;;;;11.80;6.40;;;;;;;-4.77;92.97;101771.00;105503;1270;101362;-82
2023/11/22 06:50:31;;;;;;;10.30;5.80;;;;;;;-4.71;93.18;101774.94;105531;1269;99297;-80
2023/11/22 06:53:19;;;;;;;12.50;6.10;;;;;;;-4.65;93.18;101787.41;105555;1267;98473;-78
2023/11/22 06:56:04;;;;;;;10.10;5.80;;;;;;;-4.59;93.07;101792.77;105436;1265;97865;-79
2023/11/22 06:58:51;;;;;;;9.70;5.30;;;;;;;-4.55;92.89;101795.55;105494;1269;97858;-80
2023/11/22 07:01:36;;;;;;;11.10;6.00;;;;;;;-4.50;92.81;101800.42;105491;1270;102085;-80
2023/11/22 07:04:22;;;;;;;10.50;5.70;;;;;;;-4.46;92.81;101806.16;105522;1270;99174;-79
2023/11/22 07:07:10;;;;;;;13.40;6.50;;;;;;;-4.41;92.80;101814.83;105527;1267;97890;-80
2023/11/22 07:09:59;;;;;;;13.90;6.30;;;;;;;-4.39;92.68;101813.17;105653;1270;97977;-81
2023/11/22 07:12:44;;;;;;;8.60;5.90;;;;;;;-4.35;92.65;101806.76;106146;1267;98073;-80
2023/11/22 07:15:30;;;;;;;9.10;5.60;;;;;;;-4.31;92.36;101815.83;106148;1269;103015;-80
2023/11/22 07:18:16;;;;;;;12.80;5.80;;;;;;;-4.28;92.29;101815.19;106081;1270;100406;-80
2023/11/22 07:21:02;;;;;;;11.20;6.90;;;;;;;-4.26;92.00;101817.54;107709;1265;97975;-80
2023/11/22 07:23:48;;;;;;;11.80;7.10;;;;;;;-4.27;91.83;101819.13;106332;1267;97803;-81
2023/11/22 07:26:34;;;;;;;9.40;5.80;;;;;;;-4.28;91.86;101830.34;106182;1266;98500;-81
2023/11/22 07:29:21;;;;;;;11.10;5.90;;;;;;;-4.28;91.78;101834.21;106072;1267;102651;-80
2023/11/22 07:32:08;;;;;;;13.40;6.80;;;;;;;-4.30;91.54;101828.48;106220;1267;99157;-81
2023/11/22 07:34:55;;;;;;;12.20;6.40;;;;;;;-4.26;91.91;101833.23;105597;1270;99007;-81
2023/11/22 07:37:44;;;;;;;15.00;7.00;;;;;;;-4.21;91.98;101836.66;104938;1267;98015;-79
2023/11/22 07:40:30;;;;;;;7.70;5.20;;;;;;;-4.16;91.96;101838.21;105557;1267;98004;-81
2023/11/22 07:43:15;;;;;;;12.40;6.30;;;;;;;-4.13;91.88;101839.62;105477;1270;101352;-80
2023/11/22 07:46:12;;;;;;;10.50;6.50;;;;;;;-4.09;91.76;101834.06;105458;1267;99518;-80
2023/11/22 07:48:57;;;;;;;19.40;7.00;;;;;;;-4.04;91.70;101834.20;105472;1265;98999;-80
2023/11/22 07:51:46;;;;;;;15.80;6.30;;;;;;;-4.00;91.67;101839.63;105578;1265;97997;-80
2023/11/22 07:54:31;;;;;;;11.50;6.10;;;;;;;-3.98;91.83;101843.89;105492;1264;98505;-80
2023/11/22 07:57:16;;;;;;;10.20;5.90;;;;;;;-3.94;91.94;101845.80;105376;1267;101479;-79
2023/11/22 08:00:06;;;;;;;11.30;6.20;;;;;;;-3.85;93.14;101847.17;105293;1270;99162;-80
2023/11/22 08:02:57;;;;;;;12.10;6.40;;;;;;;-3.77;92.61;101852.28;105404;1269;98845;-80
2023/11/22 08:05:48;;;;;;;9.20;5.90;;;;;;;-3.75;91.90;101863.88;105273;1267;98084;-80
2023/11/22 08:08:38;;;;;;;8.40;5.00;;;;;;;-3.76;91.41;101875.42;105249;1267;97901;-80
2023/11/22 08:11:24;;;;;;;;;;;;;;;-3.77;91.20;101885.77;105158;1270;102196;-81
2023/11/22 08:14:12;;;;;;;9.70;5.50;;;;;;;-3.79;91.33;101886.71;105578;1264;99890;-79
2023/11/22 08:16:58;;;;;;;9.30;6.00;;;;;;;-3.79;91.50;101886.36;105196;1270;98806;-79
2023/11/22 08:19:44;;;;;;;10.80;5.50;;;;;;;-3.77;91.49;101883.69;105154;1268;97928;-79
2023/11/22 08:22:30;;;;;;;12.00;5.70;;;;;;;-3.76;91.00;101881.52;105248;1279;98525;-79
2023/11/22 08:25:15;;;;;;;13.50;6.30;;;;;;;-3.75;90.81;101882.20;105220;1267;101432;-80
2023/11/22 08:28:01;;;;;;;10.00;6.10;;;;;;;-3.74;90.71;101884.23;105128;1270;99167;-79
2023/11/22 08:30:46;;;;;;;11.20;6.30;;;;;;;-3.72;90.57;101883.79;105410;1270;98340;-80
2023/11/22 08:33:31;;;;;;;11.80;6.90;;;;;;;-3.67;90.68;101888.81;105531;1268;98020;-83
2023/11/22 08:36:18;;;;;;;12.40;6.30;;;;;;;-3.61;90.87;101887.52;105862;1269;98412;-82
2023/11/22 08:39:04;;;;;;;10.40;5.60;;;;;;;-3.55;90.75;101889.67;105878;1267;102361;-81
2023/11/22 08:41:50;;;;;;;13.90;6.80;;;;;;;-3.50;90.29;101897.49;106493;1267;99138;-80
2023/11/22 08:44:36;;;;;;;10.50;5.90;;;;;;;-3.46;89.98;101905.54;105844;1264;97971;-80
2023/11/22 08:47:22;;;;;;;15.10;6.50;;;;;;;-3.42;90.24;101916.20;105680;1267;95958;-79
2023/11/22 08:50:10;;;;;;;8.20;5.00;;;;;;;-3.36;90.30;101919.93;105793;1267;116083;-81
2023/11/22 08:52:57;;;;;;;6.90;4.70;;;;;;;-3.28;90.19;101931.66;105845;1270;101524;-81
2023/11/22 08:55:43;;;;;;;10.90;5.40;;;;;;;-3.22;90.09;101937.66;105529;1269;99218;-80
2023/11/22 08:58:29;;;;;;;10.40;5.50;;;;;;;-3.16;90.15;101933.70;105701;1267;98513;-81
2023/11/22 09:01:15;;;;;;;9.30;5.30;;;;;;;-3.09;89.78;101927.85;105883;1273;98148;-83
2023/11/22 09:04:00;;;;;;;9.80;5.30;;;;;;;-3.04;89.11;101919.94;105631;1272;98014;-83
2023/11/22 09:06:47;;;;;;;10.70;6.00;;;;;;;-3.00;88.53;101919.21;105575;1269;102743;-82
2023/11/22 09:09:34;;;;;;;8.80;5.00;;;;;;;-2.96;88.29;101927.97;105742;1267;99863;-81
2023/11/22 09:12:20;;;;;;;11.60;6.30;;;;;;;-2.90;88.63;101932.41;105497;1265;97984;-78
2023/11/22 09:15:17;;;;;;;12.30;6.50;;;;;;;-2.84;88.80;101926.70;104863;1269;98031;-77
2023/11/22 09:18:03;;;;;;;9.70;6.20;;;;;;;-2.74;89.28;101922.37;104620;1268;98529;-77
2023/11/22 09:20:48;;;;;;;10.20;5.60;;;;;;;-2.68;88.58;101910.36;104577;1269;101525;-78
2023/11/22 09:23:35;;;;;;;11.10;6.20;;;;;;;-2.65;87.96;101906.23;104845;1270;99240;-78
2023/11/22 09:26:21;;;;;;;12.00;6.90;;;;;;;-2.63;87.32;101907.19;104684;1270;98677;-77
2023/11/22 09:29:07;;;;;;;12.50;6.40;;;;;;;-2.59;87.43;101900.39;104672;1271;97895;-78
2023/11/22 09:31:52;;;;;;;12.20;7.20;;;;;;;-2.54;87.63;101893.48;104670;1265;99680;-77
2023/11/22 09:34:37;;;;;;;14.10;7.10;;;;;;;-2.48;87.66;101894.23;104657;1265;102830;-79
2023/11/22 09:37:24;;;;;;;11.60;5.40;;;;;;;-2.45;87.14;101891.24;104770;1269;99238;-77
2023/11/22 09:40:12;;;;;;;12.60;5.80;;;;;;;-2.42;86.49;101882.57;104923;1265;97991;-81
2023/11/22 09:43:03;;;;;;;13.50;5.60;;;;;;;-2.38;86.55;101866.27;105768;1264;97796;-87
2023/11/22 09:45:49;;;;;;;9.10;5.50;;;;;;;-2.33;86.32;101871.30;106154;1270;97806;-81
2023/11/22 09:48:36;;;;;;;12.30;7.00;;;;;;;-2.29;86.00;101874.45;105692;1265;101432;-78
2023/11/22 09:51:32;;;;;;;11.30;6.20;;;;;;;-2.24;86.15;101868.77;104976;1265;99319;-79
2023/11/22 09:54:20;;;;;;;11.30;6.70;;;;;;;-2.20;86.04;101869.60;106111;1266;99071;-82
2023/11/22 09:57:10;;;;;;;10.30;6.40;;;;;;;-2.16;85.89;101863.44;105626;1267;97774;-79
2023/11/22 09:59:57;;;;;;;11.00;5.90;;;;;;;-2.09;86.87;101857.16;105395;1264;98753;-78
2023/11/22 10:02:43;;;;;;;7.50;5.10;;;;;;;-2.03;85.82;101863.88;104873;1270;102597;-78
2023/11/22 10:05:29;;;;;;;10.20;6.50;;;;;;;-2.00;85.01;101861.79;105022;1267;100439;-79
2023/11/22 10:08:17;;;;;;;10.50;7.40;;;;;;;-1.96;85.09;101866.48;105242;1265;99149;-79
2023/11/22 10:11:04;;;;;;;11.50;7.30;;;;;;;-1.90;85.49;101873.88;105318;1264;98027;-78
2023/11/22 10:13:50;;;;;;;44.90;33.20;;;;;;;-1.80;87.41;101877.23;105479;1270;98967;-79
2023/11/22 10:16:36;;;;;;;19.80;11.20;;;;;;;-1.71;86.83;101870.30;105386;1267;101333;-80
2023/11/22 10:19:22;;;;;;;15.00;7.40;;;;;;;-1.68;85.51;101869.09;105236;1267;100394;-79
2023/11/22 10:22:08;;;;;;;13.10;6.00;;;;;;;-1.66;85.17;101885.09;105373;1270;97924;-79
2023/11/22 10:25:00;;;;;;;11.60;6.20;;;;;;;-1.66;84.94;101891.89;104911;1269;99331;-79
2023/11/22 10:27:47;;;;;;;13.10;6.50;;;;;;;-1.63;85.00;101886.14;105347;1265;98424;-80
2023/11/22 10:30:34;;;;;;;24.60;18.90;;;;;;;-1.61;85.18;101886.91;105376;1265;101427;-79
2023/11/22 10:33:22;;;;;;;10.90;6.00;;;;;;;-1.54;85.93;101884.63;105711;1269;99096;-79
2023/11/22 10:36:08;;;;;;;9.60;5.70;;;;;;;-1.50;85.15;101880.92;107764;1267;98523;-79
2023/11/22 10:38:54;;;;;;;8.30;5.70;;;;;;;-1.48;84.29;101889.77;105296;1265;98060;-78
2023/11/22 10:41:40;;;;;;;12.90;6.00;;;;;;;-1.48;83.45;101891.70;105311;1265;98434;-79
2023/11/22 10:44:26;;;;;;;9.80;5.30;;;;;;;-1.48;83.32;101882.74;105369;1265;102735;-79
2023/11/22 10:47:19;;;;;;;7.40;4.70;;;;;;;-1.44;83.62;101877.49;105628;1264;99233;-79
2023/11/22 10:50:08;;;;;;;7.40;4.70;;;;;;;-1.40;83.36;101871.16;105260;1265;97991;-82
2023/11/22 10:52:57;;;;;;;11.10;6.00;;;;;;;-1.38;83.48;101872.42;105641;1264;96497;-80
2023/11/22 10:55:47;;;;;;;9.60;5.60;;;;;;;-1.36;83.25;101878.11;105868;1266;97904;-80
2023/11/22 10:58:34;;;;;;;11.50;5.50;;;;;;;-1.27;85.54;101879.04;105661;1265;102136;-79
2023/11/22 11:01:21;;;;;;;7.60;4.80;;;;;;;-1.18;84.92;101878.70;105759;1267;99275;-80
2023/11/22 11:04:13;;;;;;;8.70;5.30;;;;;;;-1.15;83.80;101876.61;105864;1264;97978;-80
2023/11/22 11:07:02;;;;;;;8.10;4.90;;;;;;;-1.17;82.81;101870.27;106265;1270;98873;-79
2023/11/22 11:09:50;;;;;;;9.10;4.80;;;;;;;-1.19;82.37;101869.98;106241;1270;98436;-80
2023/11/22 11:12:36;;;;;;;8.90;4.90;;;;;;;-1.16;82.48;101864.05;105785;1264;102670;-80
2023/11/22 11:15:23;;;;;;;12.70;5.40;;;;;;;-1.13;82.37;101855.30;105635;1267;99180;-80
2023/11/22 11:18:10;;;;;;;8.90;4.90;;;;;;;-1.11;81.99;101852.58;105566;1269;97981;-80
2023/11/22 11:21:02;;;;;;;9.10;4.40;;;;;;;-1.11;81.43;101860.12;105551;1264;97947;-79
2023/11/22 11:23:52;;;;;;;9.40;4.60;;;;;;;-1.11;81.50;101867.13;105809;1269;98429;-80
2023/11/22 11:26:37;;;;;;;66.50;23.70;;;;;;;-1.09;81.99;101872.77;105632;1270;101322;-80
2023/11/22 11:29:49;;;;;;;12.00;6.90;;;;;;;-1.06;81.89;101877.52;105765;1269;99094;-80
2023/11/22 11:32:37;;;;;;;14.70;5.90;;;;;;;-1.03;81.99;101883.86;105566;1269;97925;-83
2023/11/22 11:35:42;;;;;;;16.00;8.70;;;;;;;-0.99;82.20;101879.62;105593;1270;97936;-84
2023/11/22 11:38:33;;;;;;;8.60;5.10;;;;;;;-0.93;82.30;101879.81;105725;1267;98907;-82
2023/11/22 11:41:18;;;;;;;9.40;5.00;;;;;;;-0.91;81.52;101877.25;106402;1266;101469;-82
2023/11/22 11:44:09;;;;;;;9.40;6.30;;;;;;;-0.88;83.02;101868.11;105885;1270;100483;-80
2023/11/22 11:46:54;;;;;;;10.90;5.40;;;;;;;-0.72;87.84;101863.09;105837;1265;98743;-81
2023/11/22 11:49:40;;;;;;;8.00;4.60;;;;;;;-0.48;91.17;101861.34;105812;1265;97969;-82
2023/11/22 11:52:26;;;;;;;10.00;5.90;;;;;;;-0.16;94.14;101859.11;105971;1265;97876;-83
2023/11/22 11:55:12;;;;;;;8.40;5.80;;;;;;;0.02;89.07;101853.02;105822;1265;102521;-84
2023/11/22 11:58:05;;;;;;;13.00;9.00;;;;;;;0.01;85.85;101846.60;105846;1265;100402;-84
2023/11/22 12:00:55;;;;;;;9.20;6.00;;;;;;;-0.04;84.59;101847.21;105844;1270;99042;-82
2023/11/22 12:03:40;;;;;;;11.60;6.80;;;;;;;-0.10;83.28;101843.69;105821;1267;97869;-83
2023/11/22 12:06:26;;;;;;;11.30;7.10;;;;;;;-0.15;83.23;101837.31;105745;1270;98442;-82
2023/11/22 12:09:11;;;;;;;8.60;5.40;;;;;;;-0.16;83.24;101849.33;105759;1265;101577;-82
2023/11/22 12:12:01;;;;;;;7.50;5.20;;;;;;;-0.17;83.28;101859.39;105793;1265;99775;-83
2023/11/22 12:14:48;;;;;;;9.60;6.30;;;;;;;-0.17;83.36;101860.95;105809;1264;98394;-82
2023/11/22 12:17:33;;;;;;;10.80;5.90;;;;;;;-0.17;82.82;101865.02;105927;1267;98073;-82
2023/11/22 12:20:21;;;;;;;8.80;6.70;;;;;;;-0.18;82.80;101871.39;105710;1265;99659;-82
2023/11/22 12:23:08;;;;;;;7.90;5.40;;;;;;;-0.19;82.54;101872.82;106144;1265;102605;-82
2023/11/22 12:25:55;;;;;;;7.90;5.50;;;;;;;-0.19;82.62;101865.27;105886;1265;99220;-84
2023/11/22 12:28:41;;;;;;;8.40;4.70;;;;;;;-0.19;82.54;101858.44;105799;1265;98093;-83
2023/11/22 12:31:29;;;;;;;6.90;4.90;;;;;;;-0.18;82.72;101858.56;105842;1269;96249;-83
2023/11/22 12:34:15;;;;;;;9.10;5.50;;;;;;;-0.17;82.79;101856.92;105630;1265;98417;-83
2023/11/22 12:37:01;;;;;;;9.70;6.80;;;;;;;-0.15;82.67;101853.98;105903;1267;101451;-81
2023/11/22 12:39:48;;;;;;;7.70;5.10;;;;;;;-0.14;81.69;101849.90;105792;1266;99792;-83